sensor_id;sensor_type;location;lat;lon;timestamp;P1;durP1;ratioP1;P2;durP2;ratioP2
73331;SDS011;61560;33.718;73.040;2022-07-29T00:01:32;6.03;;;4.00;;
73331;SDS011;61560;33.718;73.040;2022-07-29T00:03:58;6.20;;;3.70;;
73331;SDS011;61560;33.718;73.040;2022-07-29T00:06:25;8.20;;;4.07;;
73331;SDS011;61560;33.718;73.040;2022-07-29T00:08:51;6.15;;;3.47;;
73331;SDS011;61560;33.718;73.040;2022-07-29T00:11:18;6.25;;;3.72;;
73331;SDS011;61560;33.718;73.040;2022-07-29T00:13:44;8.02;;;4.22;;
73331;SDS011;61560;33.718;73.040;2022-07-29T00:16:11;5.60;;;3.92;;
73331;SDS011;61560;33.718;73.040;2022-07-29T00:18:37;7.97;;;4.20;;
73331;SDS011;61560;33.718;73.040;2022-07-29T00:21:05;6.45;;;3.85;;
73331;SDS011;61560;33.718;73.040;2022-07-29T00:23:31;8.40;;;4.75;;
73331;SDS011;61560;33.718;73.040;2022-07-29T00:25:58;10.23;;;4.35;;
73331;SDS011;61560;33.718;73.040;2022-07-29T00:28:24;7.70;;;4.32;;
73331;SDS011;61560;33.718;73.040;2022-07-29T00:30:51;7.63;;;4.00;;
73331;SDS011;61560;33.718;73.040;2022-07-29T00:33:17;5.85;;;4.10;;
73331;SDS011;61560;33.718;73.040;2022-07-29T00:35:44;7.70;;;4.40;;
73331;SDS011;61560;33.718;73.040;2022-07-29T00:38:11;7.88;;;4.63;;
73331;SDS011;61560;33.718;73.040;2022-07-29T00:40:39;8.85;;;4.53;;
73331;SDS011;61560;33.718;73.040;2022-07-29T00:43:06;7.35;;;4.38;;
73331;SDS011;61560;33.718;73.040;2022-07-29T00:45:33;8.75;;;4.53;;
73331;SDS011;61560;33.718;73.040;2022-07-29T00:48:01;6.32;;;4.18;;
73331;SDS011;61560;33.718;73.040;2022-07-29T00:50:30;6.93;;;4.03;;
73331;SDS011;61560;33.718;73.040;2022-07-29T00:52:57;6.38;;;3.95;;
73331;SDS011;61560;33.718;73.040;2022-07-29T00:55:24;8.00;;;4.88;;
73331;SDS011;61560;33.718;73.040;2022-07-29T00:57:51;7.10;;;4.55;;
73331;SDS011;61560;33.718;73.040;2022-07-29T01:00:22;8.07;;;4.32;;
73331;SDS011;61560;33.718;73.040;2022-07-29T01:02:52;6.55;;;4.32;;
73331;SDS011;61560;33.718;73.040;2022-07-29T01:05:23;8.80;;;4.22;;
73331;SDS011;61560;33.718;73.040;2022-07-29T01:07:52;7.78;;;4.30;;
73331;SDS011;61560;33.718;73.040;2022-07-29T01:10:20;8.07;;;4.82;;
73331;SDS011;61560;33.718;73.040;2022-07-29T01:12:49;7.85;;;4.30;;
73331;SDS011;61560;33.718;73.040;2022-07-29T01:15:17;7.20;;;4.57;;
73331;SDS011;61560;33.718;73.040;2022-07-29T01:18:11;11.80;;;4.40;;
73331;SDS011;61560;33.718;73.040;2022-07-29T01:26:27;6.47;;;4.22;;
73331;SDS011;61560;33.718;73.040;2022-07-29T01:31:59;10.38;;;5.10;;
73331;SDS011;61560;33.718;73.040;2022-07-29T01:34:48;7.90;;;5.07;;
73331;SDS011;61560;33.718;73.040;2022-07-29T01:39:52;9.63;;;5.65;;
73331;SDS011;61560;33.718;73.040;2022-07-29T01:45:05;8.38;;;5.28;;
73331;SDS011;61560;33.718;73.040;2022-07-29T01:47:46;8.43;;;4.82;;
73331;SDS011;61560;33.718;73.040;2022-07-29T01:50:34;8.55;;;5.13;;
73331;SDS011;61560;33.718;73.040;2022-07-29T01:53:06;10.00;;;5.32;;
73331;SDS011;61560;33.718;73.040;2022-07-29T01:55:38;8.85;;;5.15;;
73331;SDS011;61560;33.718;73.040;2022-07-29T01:58:08;8.98;;;4.75;;
73331;SDS011;61560;33.718;73.040;2022-07-29T02:00:38;9.93;;;5.43;;
73331;SDS011;61560;33.718;73.040;2022-07-29T02:03:07;9.93;;;4.78;;
73331;SDS011;61560;33.718;73.040;2022-07-29T02:05:37;10.90;;;6.15;;
73331;SDS011;61560;33.718;73.040;2022-07-29T02:08:08;10.48;;;5.10;;
73331;SDS011;61560;33.718;73.040;2022-07-29T02:10:37;7.32;;;4.93;;
73331;SDS011;61560;33.718;73.040;2022-07-29T02:13:06;10.05;;;4.90;;
73331;SDS011;61560;33.718;73.040;2022-07-29T02:15:35;9.25;;;5.00;;
73331;SDS011;61560;33.718;73.040;2022-07-29T02:18:07;8.88;;;5.13;;
73331;SDS011;61560;33.718;73.040;2022-07-29T02:20:37;10.73;;;5.88;;
73331;SDS011;61560;33.718;73.040;2022-07-29T02:23:05;13.40;;;6.22;;
73331;SDS011;61560;33.718;73.040;2022-07-29T02:25:37;17.77;;;6.53;;
73331;SDS011;61560;33.718;73.040;2022-07-29T02:28:05;13.73;;;5.72;;
73331;SDS011;61560;33.718;73.040;2022-07-29T02:30:36;8.80;;;5.72;;
73331;SDS011;61560;33.718;73.040;2022-07-29T02:33:06;15.77;;;6.55;;
73331;SDS011;61560;33.718;73.040;2022-07-29T02:35:35;12.55;;;6.57;;
73331;SDS011;61560;33.718;73.040;2022-07-29T02:38:04;12.43;;;6.30;;
73331;SDS011;61560;33.718;73.040;2022-07-29T02:40:50;12.93;;;6.22;;
73331;SDS011;61560;33.718;73.040;2022-07-29T02:43:19;14.85;;;6.60;;
73331;SDS011;61560;33.718;73.040;2022-07-29T02:45:47;11.45;;;5.57;;
73331;SDS011;61560;33.718;73.040;2022-07-29T02:48:19;12.85;;;6.75;;
73331;SDS011;61560;33.718;73.040;2022-07-29T02:50:55;7.70;;;5.22;;
73331;SDS011;61560;33.718;73.040;2022-07-29T02:53:31;12.82;;;5.88;;
73331;SDS011;61560;33.718;73.040;2022-07-29T02:56:10;11.50;;;5.78;;
73331;SDS011;61560;33.718;73.040;2022-07-29T02:58:41;11.15;;;6.13;;
73331;SDS011;61560;33.718;73.040;2022-07-29T03:01:20;11.68;;;5.75;;
73331;SDS011;61560;33.718;73.040;2022-07-29T03:03:49;9.68;;;5.45;;
73331;SDS011;61560;33.718;73.040;2022-07-29T03:06:19;15.55;;;5.63;;
73331;SDS011;61560;33.718;73.040;2022-07-29T03:08:48;14.18;;;5.65;;
73331;SDS011;61560;33.718;73.040;2022-07-29T03:11:16;7.60;;;5.05;;
73331;SDS011;61560;33.718;73.040;2022-07-29T03:13:44;11.52;;;5.43;;
73331;SDS011;61560;33.718;73.040;2022-07-29T03:16:11;10.68;;;5.72;;
73331;SDS011;61560;33.718;73.040;2022-07-29T03:18:39;9.77;;;5.22;;
73331;SDS011;61560;33.718;73.040;2022-07-29T03:21:05;14.02;;;5.65;;
73331;SDS011;61560;33.718;73.040;2022-07-29T03:23:32;9.15;;;4.85;;
73331;SDS011;61560;33.718;73.040;2022-07-29T03:25:59;15.20;;;5.97;;
73331;SDS011;61560;33.718;73.040;2022-07-29T03:28:25;12.05;;;5.85;;
73331;SDS011;61560;33.718;73.040;2022-07-29T03:30:53;16.00;;;7.00;;
73331;SDS011;61560;33.718;73.040;2022-07-29T03:33:20;16.45;;;7.60;;
73331;SDS011;61560;33.718;73.040;2022-07-29T03:35:46;19.65;;;7.25;;
73331;SDS011;61560;33.718;73.040;2022-07-29T03:38:13;14.88;;;7.57;;
73331;SDS011;61560;33.718;73.040;2022-07-29T03:40:44;15.40;;;7.65;;
73331;SDS011;61560;33.718;73.040;2022-07-29T03:43:17;14.98;;;6.80;;
73331;SDS011;61560;33.718;73.040;2022-07-29T03:45:46;14.60;;;7.00;;
73331;SDS011;61560;33.718;73.040;2022-07-29T03:48:18;18.02;;;7.80;;
73331;SDS011;61560;33.718;73.040;2022-07-29T03:50:48;13.80;;;6.97;;
73331;SDS011;61560;33.718;73.040;2022-07-29T03:53:16;15.77;;;7.47;;
73331;SDS011;61560;33.718;73.040;2022-07-29T03:55:44;16.13;;;7.82;;
73331;SDS011;61560;33.718;73.040;2022-07-29T03:58:14;14.30;;;7.37;;
73331;SDS011;61560;33.718;73.040;2022-07-29T04:00:42;13.13;;;6.60;;
73331;SDS011;61560;33.718;73.040;2022-07-29T04:03:10;13.07;;;6.30;;
73331;SDS011;61560;33.718;73.040;2022-07-29T04:05:36;10.27;;;6.00;;
73331;SDS011;61560;33.718;73.040;2022-07-29T04:08:03;15.55;;;6.18;;
73331;SDS011;61560;33.718;73.040;2022-07-29T04:10:30;15.25;;;6.10;;
73331;SDS011;61560;33.718;73.040;2022-07-29T04:12:58;16.02;;;6.47;;
73331;SDS011;61560;33.718;73.040;2022-07-29T04:15:25;11.48;;;6.50;;
73331;SDS011;61560;33.718;73.040;2022-07-29T04:17:54;16.77;;;7.03;;
73331;SDS011;61560;33.718;73.040;2022-07-29T04:20:21;13.38;;;6.47;;
73331;SDS011;61560;33.718;73.040;2022-07-29T04:22:48;13.02;;;6.97;;
73331;SDS011;61560;33.718;73.040;2022-07-29T04:25:14;11.80;;;6.00;;
73331;SDS011;61560;33.718;73.040;2022-07-29T04:27:41;11.05;;;6.63;;
73331;SDS011;61560;33.718;73.040;2022-07-29T04:30:25;11.82;;;6.05;;
73331;SDS011;61560;33.718;73.040;2022-07-29T04:32:52;11.10;;;5.57;;
73331;SDS011;61560;33.718;73.040;2022-07-29T04:35:20;10.07;;;5.20;;
73331;SDS011;61560;33.718;73.040;2022-07-29T04:37:47;11.23;;;6.00;;
73331;SDS011;61560;33.718;73.040;2022-07-29T04:40:14;10.82;;;5.88;;
73331;SDS011;61560;33.718;73.040;2022-07-29T04:42:40;15.02;;;6.90;;
73331;SDS011;61560;33.718;73.040;2022-07-29T04:45:07;14.18;;;5.97;;
73331;SDS011;61560;33.718;73.040;2022-07-29T04:47:33;11.35;;;5.60;;
73331;SDS011;61560;33.718;73.040;2022-07-29T04:50:00;13.45;;;5.78;;
73331;SDS011;61560;33.718;73.040;2022-07-29T04:52:27;11.88;;;6.00;;
73331;SDS011;61560;33.718;73.040;2022-07-29T04:54:54;7.15;;;4.38;;
73331;SDS011;61560;33.718;73.040;2022-07-29T04:57:20;13.43;;;5.00;;
73331;SDS011;61560;33.718;73.040;2022-07-29T04:59:47;9.18;;;4.88;;
73331;SDS011;61560;33.718;73.040;2022-07-29T05:02:14;9.98;;;5.57;;
73331;SDS011;61560;33.718;73.040;2022-07-29T05:04:40;10.43;;;4.95;;
73331;SDS011;61560;33.718;73.040;2022-07-29T05:07:07;11.38;;;5.47;;
73331;SDS011;61560;33.718;73.040;2022-07-29T05:09:33;9.90;;;5.57;;
73331;SDS011;61560;33.718;73.040;2022-07-29T05:12:00;9.73;;;5.78;;
73331;SDS011;61560;33.718;73.040;2022-07-29T05:14:27;12.77;;;6.35;;
73331;SDS011;61560;33.718;73.040;2022-07-29T05:16:54;12.02;;;6.18;;
73331;SDS011;61560;33.718;73.040;2022-07-29T05:19:22;10.93;;;5.93;;
73331;SDS011;61560;33.718;73.040;2022-07-29T05:21:49;12.65;;;5.65;;
73331;SDS011;61560;33.718;73.040;2022-07-29T05:24:16;13.52;;;6.00;;
73331;SDS011;61560;33.718;73.040;2022-07-29T05:26:43;15.40;;;7.25;;
73331;SDS011;61560;33.718;73.040;2022-07-29T05:29:11;12.85;;;6.53;;
73331;SDS011;61560;33.718;73.040;2022-07-29T05:31:37;10.88;;;5.95;;
73331;SDS011;61560;33.718;73.040;2022-07-29T05:34:04;13.18;;;6.38;;
73331;SDS011;61560;33.718;73.040;2022-07-29T05:36:31;13.88;;;7.05;;
73331;SDS011;61560;33.718;73.040;2022-07-29T05:38:57;12.38;;;7.18;;
73331;SDS011;61560;33.718;73.040;2022-07-29T05:41:24;12.07;;;6.80;;
73331;SDS011;61560;33.718;73.040;2022-07-29T05:43:51;14.50;;;6.97;;
73331;SDS011;61560;33.718;73.040;2022-07-29T05:46:17;12.55;;;6.47;;
73331;SDS011;61560;33.718;73.040;2022-07-29T05:48:45;13.27;;;6.70;;
73331;SDS011;61560;33.718;73.040;2022-07-29T05:51:11;16.00;;;7.15;;
73331;SDS011;61560;33.718;73.040;2022-07-29T05:53:38;14.80;;;7.03;;
73331;SDS011;61560;33.718;73.040;2022-07-29T05:56:05;11.88;;;6.75;;
73331;SDS011;61560;33.718;73.040;2022-07-29T05:58:32;15.80;;;9.10;;
73331;SDS011;61560;33.718;73.040;2022-07-29T06:00:59;16.67;;;7.97;;
73331;SDS011;61560;33.718;73.040;2022-07-29T06:03:26;15.15;;;7.75;;
73331;SDS011;61560;33.718;73.040;2022-07-29T06:05:52;15.10;;;7.47;;
73331;SDS011;61560;33.718;73.040;2022-07-29T06:08:19;13.15;;;7.22;;
73331;SDS011;61560;33.718;73.040;2022-07-29T06:10:46;11.52;;;6.35;;
73331;SDS011;61560;33.718;73.040;2022-07-29T06:13:12;14.15;;;7.85;;
73331;SDS011;61560;33.718;73.040;2022-07-29T06:15:41;15.65;;;7.55;;
73331;SDS011;61560;33.718;73.040;2022-07-29T06:18:08;17.95;;;7.68;;
73331;SDS011;61560;33.718;73.040;2022-07-29T06:20:36;16.48;;;7.78;;
73331;SDS011;61560;33.718;73.040;2022-07-29T06:23:02;12.60;;;7.63;;
73331;SDS011;61560;33.718;73.040;2022-07-29T06:25:30;13.85;;;7.63;;
73331;SDS011;61560;33.718;73.040;2022-07-29T06:28:00;15.57;;;8.18;;
73331;SDS011;61560;33.718;73.040;2022-07-29T06:30:26;14.02;;;6.80;;
73331;SDS011;61560;33.718;73.040;2022-07-29T06:32:54;15.80;;;7.25;;
73331;SDS011;61560;33.718;73.040;2022-07-29T06:35:21;13.73;;;7.95;;
73331;SDS011;61560;33.718;73.040;2022-07-29T06:37:48;14.88;;;7.72;;
73331;SDS011;61560;33.718;73.040;2022-07-29T06:40:14;13.88;;;7.18;;
73331;SDS011;61560;33.718;73.040;2022-07-29T06:42:59;11.57;;;6.95;;
73331;SDS011;61560;33.718;73.040;2022-07-29T06:45:25;13.27;;;7.20;;
73331;SDS011;61560;33.718;73.040;2022-07-29T06:47:52;14.20;;;7.35;;
73331;SDS011;61560;33.718;73.040;2022-07-29T06:50:18;16.02;;;7.63;;
73331;SDS011;61560;33.718;73.040;2022-07-29T06:52:45;16.25;;;7.80;;
73331;SDS011;61560;33.718;73.040;2022-07-29T06:55:12;12.40;;;7.50;;
73331;SDS011;61560;33.718;73.040;2022-07-29T06:57:38;17.40;;;8.38;;
73331;SDS011;61560;33.718;73.040;2022-07-29T07:00:05;16.45;;;8.05;;
73331;SDS011;61560;33.718;73.040;2022-07-29T07:02:33;15.07;;;8.00;;
73331;SDS011;61560;33.718;73.040;2022-07-29T07:05:02;15.35;;;8.02;;
73331;SDS011;61560;33.718;73.040;2022-07-29T07:07:29;15.65;;;8.13;;
73331;SDS011;61560;33.718;73.040;2022-07-29T07:09:55;15.52;;;8.05;;
73331;SDS011;61560;33.718;73.040;2022-07-29T07:12:22;13.18;;;7.68;;
73331;SDS011;61560;33.718;73.040;2022-07-29T07:14:48;18.13;;;8.60;;
73331;SDS011;61560;33.718;73.040;2022-07-29T07:17:15;16.25;;;7.63;;
73331;SDS011;61560;33.718;73.040;2022-07-29T07:19:41;12.27;;;7.65;;
73331;SDS011;61560;33.718;73.040;2022-07-29T07:22:08;15.57;;;7.80;;
73331;SDS011;61560;33.718;73.040;2022-07-29T07:24:34;15.25;;;8.20;;
73331;SDS011;61560;33.718;73.040;2022-07-29T07:27:01;16.98;;;8.48;;
73331;SDS011;61560;33.718;73.040;2022-07-29T07:29:27;13.38;;;7.53;;
73331;SDS011;61560;33.718;73.040;2022-07-29T07:31:54;11.77;;;6.93;;
73331;SDS011;61560;33.718;73.040;2022-07-29T07:34:21;12.23;;;6.47;;
73331;SDS011;61560;33.718;73.040;2022-07-29T07:36:47;11.05;;;5.88;;
73331;SDS011;61560;33.718;73.040;2022-07-29T07:39:14;8.60;;;5.32;;
73331;SDS011;61560;33.718;73.040;2022-07-29T07:41:41;7.30;;;4.80;;
73331;SDS011;61560;33.718;73.040;2022-07-29T07:44:07;7.47;;;4.53;;
73331;SDS011;61560;33.718;73.040;2022-07-29T07:46:34;7.10;;;4.32;;
73331;SDS011;61560;33.718;73.040;2022-07-29T07:49:00;6.60;;;4.25;;
73331;SDS011;61560;33.718;73.040;2022-07-29T07:51:27;6.35;;;4.30;;
73331;SDS011;61560;33.718;73.040;2022-07-29T07:53:53;6.40;;;4.57;;
73331;SDS011;61560;33.718;73.040;2022-07-29T07:56:20;8.23;;;4.72;;
73331;SDS011;61560;33.718;73.040;2022-07-29T07:58:47;7.57;;;4.50;;
73331;SDS011;61560;33.718;73.040;2022-07-29T08:01:13;6.35;;;4.20;;
73331;SDS011;61560;33.718;73.040;2022-07-29T08:03:43;6.20;;;4.15;;
73331;SDS011;61560;33.718;73.040;2022-07-29T08:06:09;7.32;;;4.32;;
73331;SDS011;61560;33.718;73.040;2022-07-29T08:08:36;7.75;;;5.20;;
73331;SDS011;61560;33.718;73.040;2022-07-29T08:11:02;7.22;;;4.70;;
73331;SDS011;61560;33.718;73.040;2022-07-29T08:13:29;7.70;;;4.75;;
73331;SDS011;61560;33.718;73.040;2022-07-29T08:15:57;7.70;;;4.60;;
73331;SDS011;61560;33.718;73.040;2022-07-29T08:18:25;8.13;;;5.38;;
73331;SDS011;61560;33.718;73.040;2022-07-29T08:20:54;7.25;;;4.45;;
73331;SDS011;61560;33.718;73.040;2022-07-29T08:23:21;7.43;;;4.60;;
73331;SDS011;61560;33.718;73.040;2022-07-29T08:25:49;7.28;;;4.82;;
73331;SDS011;61560;33.718;73.040;2022-07-29T08:28:16;5.85;;;3.92;;
73331;SDS011;61560;33.718;73.040;2022-07-29T08:30:42;8.82;;;3.67;;
73331;SDS011;61560;33.718;73.040;2022-07-29T08:33:09;5.90;;;3.78;;
73331;SDS011;61560;33.718;73.040;2022-07-29T08:35:36;6.55;;;4.22;;
73331;SDS011;61560;33.718;73.040;2022-07-29T08:38:04;6.18;;;3.78;;
73331;SDS011;61560;33.718;73.040;2022-07-29T08:40:31;5.47;;;3.67;;
73331;SDS011;61560;33.718;73.040;2022-07-29T08:42:57;6.05;;;3.88;;
73331;SDS011;61560;33.718;73.040;2022-07-29T08:45:24;4.45;;;3.33;;
73331;SDS011;61560;33.718;73.040;2022-07-29T08:47:51;6.30;;;3.50;;
73331;SDS011;61560;33.718;73.040;2022-07-29T08:50:18;5.20;;;3.47;;
73331;SDS011;61560;33.718;73.040;2022-07-29T08:52:45;5.22;;;3.78;;
73331;SDS011;61560;33.718;73.040;2022-07-29T08:55:14;6.22;;;3.67;;
73331;SDS011;61560;33.718;73.040;2022-07-29T08:57:41;5.43;;;3.55;;
73331;SDS011;61560;33.718;73.040;2022-07-29T09:00:09;7.57;;;4.32;;
73331;SDS011;61560;33.718;73.040;2022-07-29T09:02:39;8.63;;;4.57;;
73331;SDS011;61560;33.718;73.040;2022-07-29T09:05:06;6.28;;;4.05;;
73331;SDS011;61560;33.718;73.040;2022-07-29T09:07:33;7.05;;;4.05;;
73331;SDS011;61560;33.718;73.040;2022-07-29T09:10:00;6.85;;;4.43;;
73331;SDS011;61560;33.718;73.040;2022-07-29T09:12:28;6.07;;;3.97;;
73331;SDS011;61560;33.718;73.040;2022-07-29T09:14:56;6.55;;;4.30;;
73331;SDS011;61560;33.718;73.040;2022-07-29T09:17:41;7.45;;;4.55;;
73331;SDS011;61560;33.718;73.040;2022-07-29T09:20:10;6.75;;;4.53;;
73331;SDS011;61560;33.718;73.040;2022-07-29T09:22:38;6.85;;;4.75;;
73331;SDS011;61560;33.718;73.040;2022-07-29T09:25:05;6.10;;;4.57;;
73331;SDS011;61560;33.718;73.040;2022-07-29T09:27:32;7.18;;;4.88;;
73331;SDS011;61560;33.718;73.040;2022-07-29T09:30:04;7.22;;;4.90;;
73331;SDS011;61560;33.718;73.040;2022-07-29T09:32:55;7.20;;;4.97;;
73331;SDS011;61560;33.718;73.040;2022-07-29T09:35:24;7.38;;;4.57;;
73331;SDS011;61560;33.718;73.040;2022-07-29T09:37:52;7.40;;;4.43;;
73331;SDS011;61560;33.718;73.040;2022-07-29T09:40:26;7.40;;;4.35;;
73331;SDS011;61560;33.718;73.040;2022-07-29T09:42:54;8.13;;;4.75;;
73331;SDS011;61560;33.718;73.040;2022-07-29T09:45:26;6.68;;;4.07;;
73331;SDS011;61560;33.718;73.040;2022-07-29T09:47:57;7.43;;;3.97;;
73331;SDS011;61560;33.718;73.040;2022-07-29T09:50:35;5.00;;;3.47;;
73331;SDS011;61560;33.718;73.040;2022-07-29T09:53:03;8.95;;;4.63;;
73331;SDS011;61560;33.718;73.040;2022-07-29T09:55:30;6.90;;;3.92;;
73331;SDS011;61560;33.718;73.040;2022-07-29T10:00:53;5.72;;;3.78;;
73331;SDS011;61560;33.718;73.040;2022-07-29T10:03:20;5.80;;;3.83;;
73331;SDS011;61560;33.718;73.040;2022-07-29T10:06:04;6.32;;;4.30;;
73331;SDS011;61560;33.718;73.040;2022-07-29T10:08:36;5.75;;;3.83;;
73331;SDS011;61560;33.718;73.040;2022-07-29T10:11:13;7.18;;;3.90;;
73331;SDS011;61560;33.718;73.040;2022-07-29T10:13:43;5.70;;;3.72;;
73331;SDS011;61560;33.718;73.040;2022-07-29T10:16:13;6.43;;;3.75;;
73331;SDS011;61560;33.718;73.040;2022-07-29T10:18:42;9.82;;;4.22;;
73331;SDS011;61560;33.718;73.040;2022-07-29T10:21:12;7.75;;;4.10;;
73331;SDS011;61560;33.718;73.040;2022-07-29T10:23:39;5.18;;;3.70;;
73331;SDS011;61560;33.718;73.040;2022-07-29T10:26:06;5.97;;;3.70;;
73331;SDS011;61560;33.718;73.040;2022-07-29T10:28:35;5.57;;;4.07;;
73331;SDS011;61560;33.718;73.040;2022-07-29T10:31:04;5.47;;;3.67;;
73331;SDS011;61560;33.718;73.040;2022-07-29T10:33:47;6.13;;;3.97;;
73331;SDS011;61560;33.718;73.040;2022-07-29T10:36:27;5.65;;;3.55;;
73331;SDS011;61560;33.718;73.040;2022-07-29T10:39:54;5.43;;;3.28;;
73331;SDS011;61560;33.718;73.040;2022-07-29T10:42:25;4.72;;;3.35;;
73331;SDS011;61560;33.718;73.040;2022-07-29T10:44:55;9.30;;;3.65;;
73331;SDS011;61560;33.718;73.040;2022-07-29T10:47:23;4.80;;;3.22;;
73331;SDS011;61560;33.718;73.040;2022-07-29T10:50:02;4.30;;;3.28;;
73331;SDS011;61560;33.718;73.040;2022-07-29T10:55:32;4.07;;;2.88;;
73331;SDS011;61560;33.718;73.040;2022-07-29T11:00:46;4.10;;;3.20;;
73331;SDS011;61560;33.718;73.040;2022-07-29T11:06:14;5.22;;;3.05;;
73331;SDS011;61560;33.718;73.040;2022-07-29T11:08:40;4.25;;;2.80;;
73331;SDS011;61560;33.718;73.040;2022-07-29T11:13:47;4.15;;;3.05;;
73331;SDS011;61560;33.718;73.040;2022-07-29T11:16:19;3.63;;;2.63;;
73331;SDS011;61560;33.718;73.040;2022-07-29T11:21:48;3.20;;;2.22;;
73331;SDS011;61560;33.718;73.040;2022-07-29T11:26:45;3.05;;;2.50;;
73331;SDS011;61560;33.718;73.040;2022-07-29T11:29:32;3.88;;;2.58;;
73331;SDS011;61560;33.718;73.040;2022-07-29T11:32:10;3.58;;;2.35;;
73331;SDS011;61560;33.718;73.040;2022-07-29T11:34:40;7.10;;;2.47;;
73331;SDS011;61560;33.718;73.040;2022-07-29T11:39:37;3.05;;;2.50;;
73331;SDS011;61560;33.718;73.040;2022-07-29T11:47:26;4.40;;;2.90;;
73331;SDS011;61560;33.718;73.040;2022-07-29T11:49:55;4.25;;;2.72;;
73331;SDS011;61560;33.718;73.040;2022-07-29T11:52:23;3.80;;;2.90;;
73331;SDS011;61560;33.718;73.040;2022-07-29T11:54:58;3.50;;;2.67;;
73331;SDS011;61560;33.718;73.040;2022-07-29T11:57:28;5.70;;;2.80;;
73331;SDS011;61560;33.718;73.040;2022-07-29T11:59:57;5.97;;;3.10;;
73331;SDS011;61560;33.718;73.040;2022-07-29T12:02:24;4.72;;;2.83;;
73331;SDS011;61560;33.718;73.040;2022-07-29T12:05:03;4.55;;;2.88;;
73331;SDS011;61560;33.718;73.040;2022-07-29T12:07:31;5.53;;;3.00;;
73331;SDS011;61560;33.718;73.040;2022-07-29T12:09:59;5.43;;;2.72;;
73331;SDS011;61560;33.718;73.040;2022-07-29T12:12:26;5.55;;;2.75;;
73331;SDS011;61560;33.718;73.040;2022-07-29T12:14:53;4.07;;;2.63;;
73331;SDS011;61560;33.718;73.040;2022-07-29T12:17:28;6.55;;;3.10;;
73331;SDS011;61560;33.718;73.040;2022-07-29T12:20:00;7.43;;;2.78;;
73331;SDS011;61560;33.718;73.040;2022-07-29T12:22:32;3.58;;;2.65;;
73331;SDS011;61560;33.718;73.040;2022-07-29T12:25:06;5.78;;;3.17;;
73331;SDS011;61560;33.718;73.040;2022-07-29T12:27:35;3.78;;;2.60;;
73331;SDS011;61560;33.718;73.040;2022-07-29T12:30:06;4.43;;;2.80;;
73331;SDS011;61560;33.718;73.040;2022-07-29T12:32:35;5.82;;;2.83;;
73331;SDS011;61560;33.718;73.040;2022-07-29T12:35:08;4.90;;;2.92;;
73331;SDS011;61560;33.718;73.040;2022-07-29T12:37:40;6.00;;;2.78;;
73331;SDS011;61560;33.718;73.040;2022-07-29T12:40:08;5.40;;;2.75;;
73331;SDS011;61560;33.718;73.040;2022-07-29T12:42:37;3.33;;;2.78;;
73331;SDS011;61560;33.718;73.040;2022-07-29T12:45:04;4.00;;;2.75;;
73331;SDS011;61560;33.718;73.040;2022-07-29T12:47:31;6.95;;;3.10;;
73331;SDS011;61560;33.718;73.040;2022-07-29T12:50:12;3.72;;;2.60;;
73331;SDS011;61560;33.718;73.040;2022-07-29T12:52:44;6.80;;;2.70;;
73331;SDS011;61560;33.718;73.040;2022-07-29T12:55:11;3.00;;;2.53;;
73331;SDS011;61560;33.718;73.040;2022-07-29T12:57:47;6.68;;;2.88;;
73331;SDS011;61560;33.718;73.040;2022-07-29T13:00:21;4.38;;;3.03;;
73331;SDS011;61560;33.718;73.040;2022-07-29T13:02:56;5.35;;;2.72;;
73331;SDS011;61560;33.718;73.040;2022-07-29T13:05:24;4.10;;;2.80;;
73331;SDS011;61560;33.718;73.040;2022-07-29T13:08:14;3.35;;;2.53;;
73331;SDS011;61560;33.718;73.040;2022-07-29T13:10:42;4.65;;;2.53;;
73331;SDS011;61560;33.718;73.040;2022-07-29T13:13:09;5.68;;;2.58;;
73331;SDS011;61560;33.718;73.040;2022-07-29T13:15:42;5.63;;;2.95;;
73331;SDS011;61560;33.718;73.040;2022-07-29T13:21:13;6.50;;;3.80;;
73331;SDS011;61560;33.718;73.040;2022-07-29T13:23:41;4.95;;;3.33;;
73331;SDS011;61560;33.718;73.040;2022-07-29T13:26:08;7.60;;;3.97;;
73331;SDS011;61560;33.718;73.040;2022-07-29T13:28:39;7.63;;;4.00;;
73331;SDS011;61560;33.718;73.040;2022-07-29T13:31:06;5.93;;;3.53;;
73331;SDS011;61560;33.718;73.040;2022-07-29T13:33:32;7.88;;;4.30;;
73331;SDS011;61560;33.718;73.040;2022-07-29T13:35:59;7.25;;;3.97;;
73331;SDS011;61560;33.718;73.040;2022-07-29T13:38:26;8.75;;;4.03;;
73331;SDS011;61560;33.718;73.040;2022-07-29T13:40:52;8.63;;;4.25;;
73331;SDS011;61560;33.718;73.040;2022-07-29T13:43:19;7.22;;;4.43;;
73331;SDS011;61560;33.718;73.040;2022-07-29T13:45:46;10.00;;;5.40;;
73331;SDS011;61560;33.718;73.040;2022-07-29T13:48:12;9.25;;;5.45;;
73331;SDS011;61560;33.718;73.040;2022-07-29T13:50:39;13.50;;;5.82;;
73331;SDS011;61560;33.718;73.040;2022-07-29T13:53:05;10.73;;;5.82;;
73331;SDS011;61560;33.718;73.040;2022-07-29T13:55:32;11.18;;;6.03;;
73331;SDS011;61560;33.718;73.040;2022-07-29T13:57:59;11.25;;;6.13;;
73331;SDS011;61560;33.718;73.040;2022-07-29T14:00:25;8.85;;;5.57;;
73331;SDS011;61560;33.718;73.040;2022-07-29T14:02:52;9.30;;;4.95;;
73331;SDS011;61560;33.718;73.040;2022-07-29T14:05:19;8.65;;;4.80;;
73331;SDS011;61560;33.718;73.040;2022-07-29T14:07:46;8.43;;;4.50;;
73331;SDS011;61560;33.718;73.040;2022-07-29T14:10:13;7.05;;;4.57;;
73331;SDS011;61560;33.718;73.040;2022-07-29T14:12:40;7.25;;;4.00;;
73331;SDS011;61560;33.718;73.040;2022-07-29T14:15:07;5.13;;;3.80;;
73331;SDS011;61560;33.718;73.040;2022-07-29T14:17:35;6.72;;;4.05;;
73331;SDS011;61560;33.718;73.040;2022-07-29T14:20:01;6.68;;;3.90;;
73331;SDS011;61560;33.718;73.040;2022-07-29T14:22:28;10.10;;;4.03;;
73331;SDS011;61560;33.718;73.040;2022-07-29T14:24:55;11.43;;;4.10;;
73331;SDS011;61560;33.718;73.040;2022-07-29T14:27:22;9.82;;;4.60;;
73331;SDS011;61560;33.718;73.040;2022-07-29T14:29:48;9.27;;;4.78;;
73331;SDS011;61560;33.718;73.040;2022-07-29T14:32:15;31.38;;;10.98;;
73331;SDS011;61560;33.718;73.040;2022-07-29T14:34:42;25.00;;;9.77;;
73331;SDS011;61560;33.718;73.040;2022-07-29T14:37:08;18.65;;;7.22;;
73331;SDS011;61560;33.718;73.040;2022-07-29T14:39:35;14.18;;;5.95;;
73331;SDS011;61560;33.718;73.040;2022-07-29T14:42:02;8.40;;;5.20;;
73331;SDS011;61560;33.718;73.040;2022-07-29T14:44:29;10.88;;;5.20;;
73331;SDS011;61560;33.718;73.040;2022-07-29T14:46:57;17.48;;;10.48;;
73331;SDS011;61560;33.718;73.040;2022-07-29T14:49:25;20.73;;;10.90;;
73331;SDS011;61560;33.718;73.040;2022-07-29T14:51:54;13.75;;;8.23;;
73331;SDS011;61560;33.718;73.040;2022-07-29T14:54:21;15.65;;;6.20;;
73331;SDS011;61560;33.718;73.040;2022-07-29T14:56:48;13.55;;;6.55;;
73331;SDS011;61560;33.718;73.040;2022-07-29T14:59:16;13.68;;;6.35;;
73331;SDS011;61560;33.718;73.040;2022-07-29T15:01:43;11.55;;;6.75;;
73331;SDS011;61560;33.718;73.040;2022-07-29T15:04:09;10.48;;;6.15;;
73331;SDS011;61560;33.718;73.040;2022-07-29T15:06:36;13.32;;;6.43;;
73331;SDS011;61560;33.718;73.040;2022-07-29T15:09:03;13.13;;;5.80;;
73331;SDS011;61560;33.718;73.040;2022-07-29T15:11:30;14.13;;;6.28;;
73331;SDS011;61560;33.718;73.040;2022-07-29T15:13:56;14.65;;;6.50;;
73331;SDS011;61560;33.718;73.040;2022-07-29T15:16:23;16.77;;;6.95;;
73331;SDS011;61560;33.718;73.040;2022-07-29T15:18:50;17.70;;;7.55;;
73331;SDS011;61560;33.718;73.040;2022-07-29T15:21:16;16.63;;;7.30;;
73331;SDS011;61560;33.718;73.040;2022-07-29T15:23:43;14.88;;;6.50;;